Sunday, September 23, 2018, 1:12 AM EDT
Back to Local

KGED, Georgetown Sussex Co Airport

Location: Georgetown, DE, United States Lat: 38.683
Local Time: 1:12 AM EDT ( 5:12 GMT) Lon: -75.367
Time Zone: US/Eastern Elev: 52 ft

Show me the last for .
Show Decoded

2018-09-23 00:54 METAR KGED 230454Z AUTO 03004KT 10SM BKN028 OVC100 19/16 A3017 RMK AO2 SLP215
                 T01940156 402830189 =
2018-09-23 00:37 METAR KGED 230437Z AUTO 05004KT 10SM BKN028 BKN100 19/16 A3017 RMK AO2 T01940156
                 =
2018-09-23 00:29 METAR KGED 230429Z AUTO 03005KT 10SM SCT026 SCT032 BKN100 19/16 A3017 RMK AO2
                 T01940156 =
2018-09-23 00:17 METAR KGED 230417Z AUTO 05005KT 10SM BKN026 BKN038 19/16 A3017 RMK AO2 T01940156
                 =
2018-09-22 23:54 METAR KGED 230354Z AUTO 05005KT 10SM FEW026 OVC038 19/16 A3017 RMK AO2 SLP216
                 T01940156 =
2018-09-22 22:54 METAR KGED 230254Z AUTO 04005KT 10SM BKN090 19/15 A3018 RMK AO2 SLP219 T01940150
                 50007 =
2018-09-22 21:54 METAR KGED 230154Z AUTO 03005KT 10SM CLR 19/15 A3018 RMK AO2 SLP220 T01940150 =
2018-09-22 20:54 METAR KGED 230054Z AUTO 02004KT 10SM BKN033 20/14 A3018 RMK AO2 SLP218 T02000144
                 =
2018-09-22 19:54 METAR KGED 222354Z AUTO 02007KT 10SM SCT027 OVC034 22/15 A3016 RMK AO2 SLP211
                 T02170150 10278 20217 51014 =
2018-09-22 19:16 METAR KGED 222316Z AUTO 03008KT 10SM BKN029 OVC044 22/16 A3015 RMK AO2 T02220156
                 =
2018-09-22 18:54 METAR KGED 222254Z AUTO 02005KT 10SM BKN030 BKN045 OVC085 23/16 A3015 RMK AO2
                 SLP208 T02280156 =
2018-09-22 17:54 METAR KGED 222154Z AUTO 01006KT 10SM OVC042 23/16 A3014 RMK AO2 SLP204 T02330156
                 =
2018-09-22 16:54 METAR KGED 222054Z AUTO 03007KT 10SM OVC040 24/16 A3012 RMK AO2 SLP198 T02440161
                 53006 =
2018-09-22 15:54 METAR KGED 221954Z AUTO 02006KT 10SM BKN043 OVC110 26/18 A3010 RMK AO2 SLP193
                 T02610178 =
2018-09-22 14:54 METAR KGED 221854Z AUTO 02008KT 10SM BKN046 OVC100 28/19 A3010 RMK AO2 SLP191
                 T02780194 =
2018-09-22 13:54 METAR KGED 221754Z AUTO 02007KT 10SM FEW036 BKN100 27/19 A3010 RMK AO2 SLP192
                 T02720194 10283 20228 58001 =
2018-09-22 12:54 METAR KGED 221654Z AUTO 06009KT 10SM FEW028 27/20 A3011 RMK AO2 SLP194 T02720200
                 =
2018-09-22 11:54 METAR KGED 221554Z AUTO 03010KT 10SM FEW110 27/19 A3011 RMK AO2 SLP194 T02720194
                 =
2018-09-22 10:54 METAR KGED 221454Z AUTO 36009KT 10SM FEW021 26/21 A3010 RMK AO2 SLP193 T02610206
                 53008 =
2018-09-22 09:54 METAR KGED 221354Z AUTO 35006KT 10SM BKN120 25/22 A3009 RMK AO2 SLP189 T02500217
                 =
2018-09-22 08:54 METAR KGED 221254Z AUTO VRB04KT 10SM CLR 24/22 A3008 RMK AO2 SLP186 T02390217 =
2018-09-22 08:26 METAR KGED 221226Z AUTO VRB03KT 10SM SCT014 23/22 A3008 RMK AO2 T02330217 =
2018-09-22 08:13 METAR KGED 221213Z AUTO 23003KT 10SM BKN014 23/21 A3008 RMK AO2 T02280211 =
2018-09-22 07:54 METAR KGED 221154Z AUTO 23005KT 10SM OVC015 23/21 A3008 RMK AO2 SLP185 T02280211
                 10228 20211 51020 =
2018-09-22 06:54 METAR KGED 221054Z AUTO 24003KT 10SM OVC020 22/21 A3007 RMK AO2 SLP181 T02220211
                 =
2018-09-22 06:39 METAR KGED 221039Z AUTO 00000KT 10SM BKN022 22/21 A3007 RMK AO2 T02220211 =
2018-09-22 05:54 METAR KGED 220954Z AUTO 24005KT 10SM CLR 22/21 A3004 RMK AO2 SLP173 T02220211 =
2018-09-22 04:54 METAR KGED 220854Z AUTO 22006KT 10SM CLR 22/21 A3002 RMK AO2 SLP165 T02170206
                 56013 =
2018-09-22 03:54 METAR KGED 220754Z AUTO 21008KT 10SM CLR 22/21 A3002 RMK AO2 SLP166 T02220211 =
2018-09-22 02:54 METAR KGED 220654Z AUTO 21007KT 10SM FEW120 22/21 A3004 RMK AO2 SLP171 T02170211
                 =
2018-09-22 01:54 METAR KGED 220554Z AUTO 21007KT 10SM CLR 22/21 A3006 RMK AO2 SLP177 T02170206
                 10228 20211 58011 =

Support USWX by starting your Amazon purchase here.